ENBL/FDE METAR and TAF weather

Enter ICAO airport designator
Station Type Date Time Source
ENBL METAR 2021/01/15 22:20 UTC NOAA

ENBL 152220Z 34005KT CAVOK M10/M14 Q1025


Station Type Date Time Source
ENBL Decoded METAR 2021/01/15 22:20 UTC NOAA

Forde / Bringeland, Norway (ENBL) 61-27N 005-52E
Jan 15, 2021 - 05:20 PM EST / 2021.01.15 2220 UTC
Wind: from the NNW (340 degrees) at 6 MPH (5 KT):0
Visibility: greater than 7 mile(s):0
Temperature: 14 F (-10 C)
Windchill: 5 F (-15 C):1
Dew Point: 6 F (-14 C)
Relative Humidity: 72%
Pressure (altimeter): 30.27 in. Hg (1025 hPa)
ob: ENBL 152220Z 34005KT CAVOK M10/M14 Q1025
cycle: 22

Station Type Date Time Source
ENBL TAF UTC NOAA

Error!

Example: see airport list